Time;durP1;ratioP1;P1;durP2;ratioP2;P2;SDS_P1;SDS_P2;PMS_P1;PMS_P2;Temp;Humidity;BMP_temperature;BMP_pressure;BME280_temperature;BME280_humidity;BME280_pressure;Samples;Min_cycle;Max_cycle;Signal;HPM_P1;HPM_P2
2023/05/12 00:00:58;;;;;;;5.80;4.22;;;;;;;;;;2055897;28;20031;-92
2023/05/12 00:01:58;;;;;;;7.75;5.22;;;;;;;;;;2047716;29;20114;-90
2023/05/12 00:03:01;;;;;;;7.88;4.70;;;;;;;;;;2055566;28;20502;-91
2023/05/12 00:04:01;;;;;;;7.32;5.03;;;;;;;;;;2055621;28;20023;-90
2023/05/12 00:05:02;;;;;;;7.63;5.05;;;;;;;;;;2055597;28;20474;-91
2023/05/12 00:06:03;;;;;;;7.45;5.15;;;;;;;;;;2055689;28;20034;-92
2023/05/12 00:07:05;;;;;;;;;;;;;;;;;;2056063;28;20026;-90
2023/05/12 00:09:14;;;;;;;6.38;4.88;;;;;;;;;;2054037;28;20141;-92
2023/05/12 00:10:15;;;;;;;;;;;;;;;;;;2049448;29;20031;-92
2023/05/12 00:11:15;;;;;;;9.07;5.63;;;;;;;;;;2052956;29;19918;-90
2023/05/12 00:12:15;;;;;;;8.90;4.90;;;;;;;;;;2053689;29;20028;-91
2023/05/12 00:13:17;;;;;;;8.27;5.18;;;;;;;;;;2040024;29;20488;-90
2023/05/12 00:14:18;;;;;;;8.90;5.55;;;;;;;;;;2047866;28;20526;-92
2023/05/12 00:15:20;;;;;;;6.38;5.15;;;;;;;;;;2056604;28;20113;-92
2023/05/12 00:16:20;;;;;;;8.07;5.47;;;;;;;;;;2056500;28;20030;-92
2023/05/12 00:17:21;;;;;;;7.03;5.40;;;;;;;;;;2056043;28;20037;-91
2023/05/12 00:18:22;;;;;;;;;;;;;;;;;;2056845;28;20509;-92
2023/05/12 00:19:22;;;;;;;7.40;5.28;;;;;;;;;;2047681;29;20013;-91
2023/05/12 00:20:23;;;;;;;6.10;4.75;;;;;;;;;;1692963;28;10388940;-91
2023/05/12 00:21:23;;;;;;;;;;;;;;;;;;2048494;29;20023;-91
2023/05/12 00:22:25;;;;;;;7.77;4.97;;;;;;;;;;2040004;29;19911;-90
2023/05/12 00:23:26;;;;;;;6.65;5.32;;;;;;;;;;2040312;29;20047;-92
2023/05/12 00:24:26;;;;;;;;;;;;;;;;;;2040848;29;20173;-89
2023/05/12 00:25:26;;;;;;;7.10;4.90;;;;;;;;;;2048065;29;19922;-92
2023/05/12 00:26:27;;;;;;;7.82;5.13;;;;;;;;;;2047750;29;20098;-92
2023/05/12 00:27:29;;;;;;;7.03;5.10;;;;;;;;;;2047734;29;20035;-91
2023/05/12 00:28:30;;;;;;;7.07;5.07;;;;;;;;;;2056548;28;20031;-90
2023/05/12 00:29:31;;;;;;;;;;;;;;;;;;2048354;29;20033;-90
2023/05/12 00:30:31;;;;;;;7.43;4.82;;;;;;;;;;2047717;29;20330;-91
2023/05/12 00:31:33;;;;;;;8.68;4.70;;;;;;;;;;2039365;29;20031;-90
2023/05/12 00:32:33;;;;;;;9.88;5.40;;;;;;;;;;2047800;28;20031;-90
2023/05/12 00:33:34;;;;;;;7.32;4.90;;;;;;;;;;2056074;28;20069;-90
2023/05/12 00:34:34;;;;;;;;;;;;;;;;;;2047892;29;20100;-90
2023/05/12 00:35:35;;;;;;;7.40;5.57;;;;;;;;;;2047820;29;19946;-90
2023/05/12 00:36:35;;;;;;;8.00;5.55;;;;;;;;;;2056220;28;20043;-90
2023/05/12 00:37:35;;;;;;;7.45;6.07;;;;;;;;;;2047283;29;20472;-90
2023/05/12 00:38:36;;;;;;;6.75;5.35;;;;;;;;;;2047206;28;20503;-90
2023/05/12 00:39:36;;;;;;;;;;;;;;;;;;2058166;28;20037;-89
2023/05/12 00:40:37;;;;;;;7.00;4.90;;;;;;;;;;2057502;28;19910;-89
2023/05/12 00:41:37;;;;;;;7.97;4.85;;;;;;;;;;2057647;28;20092;-90
2023/05/12 00:42:38;;;;;;;6.25;5.03;;;;;;;;;;2048652;29;20031;-89
2023/05/12 00:43:38;;;;;;;5.63;4.95;;;;;;;;;;2040762;29;20523;-90
2023/05/12 00:44:39;;;;;;;6.15;4.95;;;;;;;;;;2048771;29;20182;-89
2023/05/12 00:45:39;;;;;;;9.20;5.38;;;;;;;;;;2048850;29;20063;-90
2023/05/12 00:46:40;;;;;;;9.88;5.03;;;;;;;;;;2040789;29;20612;-90
2023/05/12 00:47:40;;;;;;;;;;;;;;;;;;2049734;29;20030;-91
2023/05/12 00:48:41;;;;;;;5.27;4.47;;;;;;;;;;2040962;29;20378;-91
2023/05/12 00:49:41;;;;;;;;;;;;;;;;;;2041446;29;20031;-91
2023/05/12 00:50:42;;;;;;;7.67;4.83;;;;;;;;;;2048815;29;19917;-91
2023/05/12 00:51:42;;;;;;;7.38;5.57;;;;;;;;;;2048811;29;20035;-92
2023/05/12 00:52:43;;;;;;;;;;;;;;;;;;2049048;29;20042;-91
2023/05/12 00:53:44;;;;;;;7.40;4.87;;;;;;;;;;2048726;29;20001;-91
2023/05/12 00:54:45;;;;;;;6.38;4.72;;;;;;;;;;2040976;29;20495;-91
2023/05/12 00:55:46;;;;;;;9.32;5.93;;;;;;;;;;2049194;28;20027;-91
2023/05/12 00:56:46;;;;;;;;;;;;;;;;;;2049179;29;20090;-91
2023/05/12 00:57:46;;;;;;;7.50;4.77;;;;;;;;;;2040781;29;19950;-91
2023/05/12 00:58:47;;;;;;;7.22;5.13;;;;;;;;;;2040983;29;20051;-92
2023/05/12 00:59:47;;;;;;;7.32;5.88;;;;;;;;;;2049061;29;20031;-89
2023/05/12 01:00:48;;;;;;;6.00;5.25;;;;;;;;;;2048728;29;20031;-91
2023/05/12 01:01:49;;;;;;;;;;;;;;;;;;2041224;29;20062;-91
2023/05/12 01:02:49;;;;;;;6.60;5.10;;;;;;;;;;2053428;29;19911;-91
2023/05/12 01:03:50;;;;;;;;;;;;;;;;;;2064947;28;20365;-90
2023/05/12 01:04:50;;;;;;;7.17;4.77;;;;;;;;;;2052429;29;19934;-90
2023/05/12 01:06:00;;;;;;;;;;;;;;;;;;2041411;29;20058;-90
2023/05/12 01:07:08;;;;;;;9.15;4.97;;;;;;;;;;2049056;29;19914;-92
2023/05/12 01:08:10;;;;;;;6.97;4.80;;;;;;;;;;2049522;29;20054;-93
2023/05/12 01:09:11;;;;;;;7.82;5.38;;;;;;;;;;2057931;28;20023;-91
2023/05/12 01:10:19;;;;;;;8.95;5.15;;;;;;;;;;2051435;29;20055;-91
2023/05/12 01:11:21;;;;;;;7.95;5.80;;;;;;;;;;2050753;29;20121;-91
2023/05/12 01:12:22;;;;;;;8.02;5.40;;;;;;;;;;2055912;28;20031;-91
2023/05/12 01:13:23;;;;;;;6.35;5.30;;;;;;;;;;2055967;29;20090;-91
2023/05/12 01:14:23;;;;;;;;;;;;;;;;;;2054506;29;20493;-91
2023/05/12 01:15:24;;;;;;;9.20;4.78;;;;;;;;;;1712824;28;10002604;-92
2023/05/12 01:16:29;;;;;;;8.02;5.53;;;;;;;;;;2049607;28;20468;-92
2023/05/12 01:17:34;;;;;;;6.63;5.07;;;;;;;;;;2057316;28;20027;-92
2023/05/12 01:18:37;;;;;;;8.70;5.38;;;;;;;;;;2057348;28;20447;-91
2023/05/12 01:19:45;;;;;;;7.65;5.25;;;;;;;;;;2057857;28;20022;-92
2023/05/12 01:20:47;;;;;;;8.60;5.35;;;;;;;;;;2049247;29;20031;-92
2023/05/12 01:21:47;;;;;;;7.30;5.30;;;;;;;;;;2041730;29;20067;-92
2023/05/12 01:22:48;;;;;;;;;;;;;;;;;;2041716;29;20484;-91
2023/05/12 01:23:56;;;;;;;7.40;5.13;;;;;;;;;;2049021;28;19914;-92
2023/05/12 01:25:00;;;;;;;7.15;5.15;;;;;;;;;;2057590;28;20043;-91
2023/05/12 01:26:10;;;;;;;7.85;5.22;;;;;;;;;;2057965;28;20105;-90
2023/05/12 01:27:12;;;;;;;7.93;5.47;;;;;;;;;;2062401;28;20110;-91
2023/05/12 01:28:13;;;;;;;6.68;5.30;;;;;;;;;;2054045;29;20067;-90
2023/05/12 01:29:14;;;;;;;6.78;5.03;;;;;;;;;;2046002;29;20324;-91
2023/05/12 01:30:16;;;;;;;13.43;5.90;;;;;;;;;;2053558;29;20372;-90
2023/05/12 01:31:18;;;;;;;8.10;5.20;;;;;;;;;;2055004;29;20062;-92
2023/05/12 01:32:21;;;;;;;7.90;5.55;;;;;;;;;;2042296;29;20032;-92
2023/05/12 01:33:21;;;;;;;12.98;6.38;;;;;;;;;;2048912;29;20031;-91
2023/05/12 01:34:22;;;;;;;8.25;6.28;;;;;;;;;;2041124;29;20032;-91
2023/05/12 01:35:23;;;;;;;7.82;5.85;;;;;;;;;;2048917;29;20432;-91
2023/05/12 01:36:24;;;;;;;8.73;5.53;;;;;;;;;;2040660;29;20565;-91
2023/05/12 01:37:27;;;;;;;6.57;5.15;;;;;;;;;;2048594;29;20031;-91
2023/05/12 01:38:28;;;;;;;7.13;5.47;;;;;;;;;;2049104;28;20146;-93
2023/05/12 01:39:28;;;;;;;;;;;;;;;;;;2048809;29;20039;-91
2023/05/12 01:40:29;;;;;;;7.83;5.40;;;;;;;;;;2040843;29;20005;-91
2023/05/12 01:41:29;;;;;;;9.00;4.90;;;;;;;;;;2048595;29;20074;-91
2023/05/12 01:42:29;;;;;;;;;;;;;;;;;;2049035;29;20038;-91
2023/05/12 01:43:30;;;;;;;6.23;5.23;;;;;;;;;;2056767;28;19917;-91
2023/05/12 01:44:30;;;;;;;9.63;5.22;;;;;;;;;;2040874;29;20114;-90
2023/05/12 01:45:32;;;;;;;5.65;4.78;;;;;;;;;;2048686;29;20141;-92
2023/05/12 01:46:35;;;;;;;7.38;5.10;;;;;;;;;;2048968;28;20514;-91
2023/05/12 01:47:36;;;;;;;6.50;5.70;;;;;;;;;;2057390;28;20106;-91
2023/05/12 01:48:36;;;;;;;;;;;;;;;;;;2049459;29;20110;-91
2023/05/12 01:49:37;;;;;;;8.97;4.80;;;;;;;;;;2040876;29;20398;-91
2023/05/12 01:50:38;;;;;;;9.90;4.95;;;;;;;;;;2047910;28;20034;-91
2023/05/12 01:51:38;;;;;;;;;;;;;;;;;;2057630;28;20065;-91
2023/05/12 01:52:39;;;;;;;8.40;5.10;;;;;;;;;;2057267;28;19914;-90
2023/05/12 01:53:39;;;;;;;5.95;5.03;;;;;;;;;;2048354;29;20034;-90
2023/05/12 01:54:39;;;;;;;7.95;5.38;;;;;;;;;;2042883;29;20027;-91
2023/05/12 01:55:40;;;;;;;;;;;;;;;;;;2048152;29;20091;-89
2023/05/12 01:56:41;;;;;;;5.53;4.87;;;;;;;;;;2055230;29;19911;-93
2023/05/12 01:57:41;;;;;;;;;;;;;;;;;;2049223;28;20062;-90
2023/05/12 01:58:41;;;;;;;6.20;5.47;;;;;;;;;;2048706;29;19910;-92
2023/05/12 01:59:42;;;;;;;;;;;;;;;;;;2041225;29;20122;-91
2023/05/12 02:00:42;;;;;;;6.00;4.82;;;;;;;;;;2050298;29;19911;-91
2023/05/12 02:01:43;;;;;;;;;;;;;;;;;;2059180;28;20474;-92
2023/05/12 02:02:43;;;;;;;5.35;4.85;;;;;;;;;;2049580;29;19916;-91
2023/05/12 02:03:43;;;;;;;7.22;5.82;;;;;;;;;;2041356;29;20024;-92
2023/05/12 02:04:44;;;;;;;;;;;;;;;;;;2049554;29;20113;-92
2023/05/12 02:05:44;;;;;;;5.40;4.50;;;;;;;;;;2048630;29;20375;-91
2023/05/12 02:06:45;;;;;;;6.65;4.95;;;;;;;;;;2048766;29;20034;-92
2023/05/12 02:07:45;;;;;;;;;;;;;;;;;;2049325;29;20655;-92
2023/05/12 02:08:45;;;;;;;7.90;5.30;;;;;;;;;;2048970;29;20370;-92
2023/05/12 02:09:46;;;;;;;;;;;;;;;;;;2049069;29;20086;-90
2023/05/12 02:10:46;;;;;;;7.47;5.33;;;;;;;;;;2040660;29;20399;-91
2023/05/12 02:11:47;;;;;;;10.32;5.45;;;;;;;;;;2040576;29;20031;-92
2023/05/12 02:12:47;;;;;;;;;;;;;;;;;;2040706;29;20047;-92
2023/05/12 02:13:48;;;;;;;7.93;5.60;;;;;;;;;;2040969;29;20458;-92
2023/05/12 02:14:48;;;;;;;;;;;;;;;;;;2041299;29;20039;-90
2023/05/12 02:15:49;;;;;;;9.00;5.13;;;;;;;;;;2048330;29;20004;-89
2023/05/12 02:16:51;;;;;;;8.43;5.45;;;;;;;;;;2048186;29;20200;-92
2023/05/12 02:17:53;;;;;;;6.85;5.43;;;;;;;;;;2048705;29;20027;-91
2023/05/12 02:18:53;;;;;;;10.38;6.18;;;;;;;;;;2048699;28;20077;-91
2023/05/12 02:19:53;;;;;;;;;;;;;;;;;;2057701;28;20027;-92
2023/05/12 02:20:54;;;;;;;8.80;5.67;;;;;;;;;;2048700;29;20012;-91
2023/05/12 02:21:54;;;;;;;8.50;5.97;;;;;;;;;;2048892;29;20098;-91
2023/05/12 02:22:55;;;;;;;;;;;;;;;;;;2041984;29;20023;-91
2023/05/12 02:23:55;;;;;;;6.70;5.23;;;;;;;;;;2052447;29;20450;-92
2023/05/12 02:24:56;;;;;;;;;;;;;;;;;;2049634;29;20386;-92
2023/05/12 02:25:56;;;;;;;7.67;5.93;;;;;;;;;;2057868;28;19941;-92
2023/05/12 02:26:57;;;;;;;7.82;6.05;;;;;;;;;;2050688;28;20035;-92
2023/05/12 02:27:57;;;;;;;;;;;;;;;;;;2048576;29;20103;-90
2023/05/12 02:28:57;;;;;;;9.13;5.45;;;;;;;;;;2057793;29;19902;-90
2023/05/12 02:29:58;;;;;;;8.57;6.07;;;;;;;;;;2058310;28;20029;-90
2023/05/12 02:30:58;;;;;;;8.32;5.38;;;;;;;;;;2057972;28;20051;-90
2023/05/12 02:31:58;;;;;;;;;;;;;;;;;;2048735;29;20051;-90
2023/05/12 02:32:59;;;;;;;6.00;5.00;;;;;;;;;;2058041;28;19921;-90
2023/05/12 02:34:00;;;;;;;8.48;6.00;;;;;;;;;;2060608;28;20039;-90
2023/05/12 02:35:00;;;;;;;6.25;5.50;;;;;;;;;;2056251;28;20138;-91
2023/05/12 02:36:00;;;;;;;9.60;6.25;;;;;;;;;;2066629;28;20103;-90
2023/05/12 02:37:01;;;;;;;;;;;;;;;;;;2058517;28;20141;-90
2023/05/12 02:38:03;;;;;;;9.52;6.18;;;;;;;;;;2050595;29;19919;-91
2023/05/12 02:39:04;;;;;;;6.43;5.07;;;;;;;;;;2058480;28;20060;-90
2023/05/12 02:40:04;;;;;;;;;;;;;;;;;;2067205;28;20023;-91
2023/05/12 02:41:05;;;;;;;7.57;5.43;;;;;;;;;;2066031;28;19916;-90
2023/05/12 02:42:06;;;;;;;6.07;5.10;;;;;;;;;;2056235;28;20089;-91
2023/05/12 02:43:06;;;;;;;8.35;5.90;;;;;;;;;;2049622;29;20114;-90
2023/05/12 02:44:07;;;;;;;8.55;5.55;;;;;;;;;;2055405;29;20034;-91
2023/05/12 02:45:09;;;;;;;8.23;5.55;;;;;;;;;;2055700;29;20030;-90
2023/05/12 02:46:09;;;;;;;7.68;5.53;;;;;;;;;;2056316;28;20130;-91
2023/05/12 02:47:09;;;;;;;;;;;;;;;;;;2064573;28;20514;-90
2023/05/12 02:48:11;;;;;;;13.07;5.73;;;;;;;;;;2065565;28;19910;-89
2023/05/12 02:49:11;;;;;;;6.28;5.10;;;;;;;;;;2064376;28;20019;-91
2023/05/12 02:50:12;;;;;;;;;;;;;;;;;;2051148;29;20059;-91
2023/05/12 02:51:12;;;;;;;8.43;6.03;;;;;;;;;;2049406;29;19918;-90
2023/05/12 02:52:12;;;;;;;;;;;;;;;;;;2061053;28;20086;-90
2023/05/12 02:53:13;;;;;;;7.93;5.40;;;;;;;;;;2048008;29;20032;-91
2023/05/12 02:54:13;;;;;;;;;;;;;;;;;;2048334;29;20110;-90
2023/05/12 02:55:14;;;;;;;10.03;5.77;;;;;;;;;;2056633;28;19909;-91
2023/05/12 02:56:15;;;;;;;7.43;5.22;;;;;;;;;;2056390;28;20026;-91
2023/05/12 02:57:15;;;;;;;8.63;5.80;;;;;;;;;;2056531;28;20046;-91
2023/05/12 02:58:15;;;;;;;;;;;;;;;;;;2048217;29;20114;-90
2023/05/12 02:59:16;;;;;;;11.57;6.03;;;;;;;;;;2047819;29;20287;-90
2023/05/12 03:00:16;;;;;;;;;;;;;;;;;;2048246;29;20514;-91
2023/05/12 03:01:16;;;;;;;7.50;5.22;;;;;;;;;;2039715;29;20277;-91
2023/05/12 03:02:17;;;;;;;;;;;;;;;;;;2048244;28;20078;-90
2023/05/12 03:03:17;;;;;;;6.85;5.63;;;;;;;;;;2040139;29;19911;-91
2023/05/12 03:04:17;;;;;;;;;;;;;;;;;;2040272;29;20317;-90
2023/05/12 03:05:18;;;;;;;9.18;5.53;;;;;;;;;;2039959;29;19990;-91
2023/05/12 03:06:18;;;;;;;;;;;;;;;;;;2040337;29;20340;-91
2023/05/12 03:07:18;;;;;;;8.43;5.10;;;;;;;;;;2039967;29;19914;-91
2023/05/12 03:08:19;;;;;;;8.55;5.80;;;;;;;;;;2047848;29;20035;-92
2023/05/12 03:09:20;;;;;;;7.88;5.57;;;;;;;;;;2056469;28;20030;-91
2023/05/12 03:10:21;;;;;;;8.27;5.40;;;;;;;;;;2047816;29;20023;-90
2023/05/12 03:11:21;;;;;;;;;;;;;;;;;;2048197;29;20023;-91
2023/05/12 03:12:22;;;;;;;9.82;5.55;;;;;;;;;;2040173;29;19974;-90
2023/05/12 03:13:23;;;;;;;;;;;;;;;;;;2040213;29;20388;-90
2023/05/12 03:14:25;;;;;;;7.75;5.22;;;;;;;;;;2047934;28;19911;-90
2023/05/12 03:15:26;;;;;;;7.72;5.00;;;;;;;;;;2056349;28;20105;-91
2023/05/12 03:16:26;;;;;;;;;;;;;;;;;;2048179;29;20027;-91
2023/05/12 03:17:27;;;;;;;6.27;4.87;;;;;;;;;;2047700;29;20047;-90
2023/05/12 03:18:27;;;;;;;7.65;5.20;;;;;;;;;;2039897;29;20043;-90
2023/05/12 03:19:28;;;;;;;8.93;5.47;;;;;;;;;;2039819;29;20038;-91
2023/05/12 03:20:28;;;;;;;8.70;5.40;;;;;;;;;;2047331;29;20047;-90
2023/05/12 03:21:29;;;;;;;6.95;5.18;;;;;;;;;;2047300;29;20122;-91
2023/05/12 03:22:29;;;;;;;;;;;;;;;;;;2047814;29;20034;-90
2023/05/12 03:23:30;;;;;;;7.27;5.50;;;;;;;;;;2047797;29;20332;-91
2023/05/12 03:24:31;;;;;;;;;;;;;;;;;;2056818;28;20023;-90
2023/05/12 03:25:33;;;;;;;6.57;5.22;;;;;;;;;;2047664;29;19965;-91
2023/05/12 03:26:34;;;;;;;9.15;5.43;;;;;;;;;;2039642;29;20119;-91
2023/05/12 03:27:35;;;;;;;;;;;;;;;;;;2048148;29;20031;-91
2023/05/12 03:28:35;;;;;;;8.60;5.73;;;;;;;;;;2047622;29;19917;-90
2023/05/12 03:29:36;;;;;;;8.82;5.35;;;;;;;;;;2056318;28;20050;-90
2023/05/12 03:30:36;;;;;;;;;;;;;;;;;;2047809;29;20030;-91
2023/05/12 03:31:36;;;;;;;7.27;5.20;;;;;;;;;;2047323;29;20059;-91
2023/05/12 03:32:40;;;;;;;9.00;5.72;;;;;;;;;;2055846;28;20101;-90
2023/05/12 03:33:40;;;;;;;9.00;5.28;;;;;;;;;;2056026;28;20019;-88
2023/05/12 03:34:41;;;;;;;;;;;;;;;;;;2065878;28;20506;-90
2023/05/12 03:36:51;;;;;;;6.57;5.13;;;;;;;;;;1690768;26;20138;-90
2023/05/12 03:37:52;;;;;;;;;;;;;;;;;;2065895;28;20031;-91
2023/05/12 03:38:53;;;;;;;10.88;6.03;;;;;;;;;;2046709;29;19946;-86
2023/05/12 03:39:55;;;;;;;7.15;5.68;;;;;;;;;;2044689;29;20458;-87
2023/05/12 03:41:07;;;;;;;7.22;5.07;;;;;;;;;;2059292;28;20023;-87
2023/05/12 03:42:07;;;;;;;6.75;5.10;;;;;;;;;;2047040;29;20510;-86
2023/05/12 03:43:08;;;;;;;;;;;;;;;;;;2047558;29;20094;-87
2023/05/12 03:44:09;;;;;;;5.80;5.20;;;;;;;;;;2055877;28;19961;-87
2023/05/12 03:45:11;;;;;;;7.93;5.45;;;;;;;;;;2046768;29;20454;-87
2023/05/12 03:46:11;;;;;;;8.25;5.50;;;;;;;;;;2046810;28;20433;-86
2023/05/12 03:47:12;;;;;;;;;;;;;;;;;;2057569;28;20030;-85
2023/05/12 03:48:12;;;;;;;6.67;4.90;;;;;;;;;;2055664;28;19952;-87
2023/05/12 03:49:13;;;;;;;;;;;;;;;;;;2056053;28;20035;-88
2023/05/12 03:50:13;;;;;;;8.73;5.40;;;;;;;;;;2055491;28;19941;-88
2023/05/12 03:51:14;;;;;;;6.15;4.82;;;;;;;;;;2046705;29;20111;-87
2023/05/12 03:52:15;;;;;;;7.82;6.13;;;;;;;;;;2040795;29;20055;-88
2023/05/12 03:53:15;;;;;;;7.35;4.50;;;;;;;;;;2057343;28;20050;-87
2023/05/12 03:54:15;;;;;;;;;;;;;;;;;;1699386;28;10409672;-87
2023/05/12 03:55:17;;;;;;;6.07;4.80;;;;;;;;;;2048683;28;19926;-86
2023/05/12 03:56:17;;;;;;;8.23;5.22;;;;;;;;;;2052574;28;20487;-87
2023/05/12 03:57:18;;;;;;;;;;;;;;;;;;2059458;28;20232;-87
2023/05/12 03:58:21;;;;;;;8.63;5.70;;;;;;;;;;2047524;29;20024;-86
2023/05/12 03:59:21;;;;;;;7.60;4.88;;;;;;;;;;2048396;28;20075;-88
2023/05/12 04:00:21;;;;;;;;;;;;;;;;;;2060470;28;20050;-87
2023/05/12 04:01:22;;;;;;;7.43;5.20;;;;;;;;;;2046897;29;20009;-87
2023/05/12 04:02:22;;;;;;;;;;;;;;;;;;2047277;29;20114;-87
2023/05/12 04:03:23;;;;;;;8.27;5.03;;;;;;;;;;2055432;28;19910;-86
2023/05/12 04:04:24;;;;;;;7.95;4.90;;;;;;;;;;2046751;29;20452;-86
2023/05/12 04:05:24;;;;;;;7.97;5.50;;;;;;;;;;2046924;28;20049;-87
2023/05/12 04:06:25;;;;;;;6.32;5.38;;;;;;;;;;1691784;28;10392192;-87
2023/05/12 04:07:26;;;;;;;;;;;;;;;;;;2039315;29;20020;-86
2023/05/12 04:08:27;;;;;;;6.97;5.27;;;;;;;;;;2047131;29;19910;-86
2023/05/12 04:09:30;;;;;;;9.23;5.80;;;;;;;;;;2055311;28;20420;-87
2023/05/12 04:10:30;;;;;;;7.40;5.30;;;;;;;;;;2055342;28;20031;-86
2023/05/12 04:11:30;;;;;;;6.93;5.55;;;;;;;;;;2047070;29;20058;-87
2023/05/12 04:12:31;;;;;;;;;;;;;;;;;;2047355;29;20434;-85
2023/05/12 04:13:32;;;;;;;8.10;5.00;;;;;;;;;;2055144;28;20337;-88
2023/05/12 04:14:32;;;;;;;;;;;;;;;;;;2055869;28;20069;-86
2023/05/12 04:15:35;;;;;;;10.07;5.00;;;;;;;;;;2055394;28;19914;-86
2023/05/12 04:16:35;;;;;;;8.77;5.53;;;;;;;;;;2055548;28;20419;-87
2023/05/12 04:17:36;;;;;;;8.65;4.85;;;;;;;;;;2055762;28;20038;-87
2023/05/12 04:18:36;;;;;;;7.57;5.50;;;;;;;;;;2046548;29;20476;-87
2023/05/12 04:19:37;;;;;;;10.60;5.25;;;;;;;;;;2046831;29;20055;-87
2023/05/12 04:20:37;;;;;;;6.95;4.80;;;;;;;;;;2055490;28;20430;-86
2023/05/12 04:21:37;;;;;;;;;;;;;;;;;;2055902;28;20026;-87
2023/05/12 04:22:38;;;;;;;12.23;5.50;;;;;;;;;;2046824;29;19966;-87
2023/05/12 04:23:39;;;;;;;9.30;5.68;;;;;;;;;;2038812;29;20475;-87
2023/05/12 04:24:39;;;;;;;;;;;;;;;;;;2047217;29;20102;-87
2023/05/12 04:25:41;;;;;;;7.30;5.07;;;;;;;;;;2055594;28;19921;-87
2023/05/12 04:26:41;;;;;;;7.78;5.03;;;;;;;;;;2055312;28;20026;-87
2023/05/12 04:27:41;;;;;;;8.10;5.25;;;;;;;;;;2055837;28;20026;-88
2023/05/12 04:28:42;;;;;;;6.18;4.68;;;;;;;;;;2055282;28;20023;-85
2023/05/12 04:29:42;;;;;;;;;;;;;;;;;;2047116;29;20027;-87
2023/05/12 04:30:42;;;;;;;12.33;5.33;;;;;;;;;;2047075;29;19915;-87
2023/05/12 04:31:43;;;;;;;6.13;4.60;;;;;;;;;;2050044;29;20050;-87
2023/05/12 04:32:43;;;;;;;;;;;;;;;;;;2051985;29;20507;-87
2023/05/12 04:33:43;;;;;;;7.37;4.80;;;;;;;;;;2046880;29;20017;-87
2023/05/12 04:34:44;;;;;;;;;;;;;;;;;;2039243;29;20032;-87
2023/05/12 04:35:44;;;;;;;11.97;4.17;;;;;;;;;;2046492;29;19910;-87
2023/05/12 04:36:45;;;;;;;7.40;4.68;;;;;;;;;;2038884;29;20059;-88
2023/05/12 04:37:45;;;;;;;;;;;;;;;;;;2039292;29;20023;-87
2023/05/12 04:38:45;;;;;;;8.13;4.27;;;;;;;;;;2046862;29;19911;-88
2023/05/12 04:39:47;;;;;;;8.05;4.50;;;;;;;;;;2055488;28;20050;-86
2023/05/12 04:40:58;;;;;;;5.12;4.21;;;;;;;;;;2041534;28;10401858;-87
2023/05/12 04:42:00;;;;;;;6.55;4.07;;;;;;;;;;2048222;28;20259;-86
2023/05/12 04:43:02;;;;;;;4.93;3.72;;;;;;;;;;2047049;29;20201;-87
2023/05/12 04:44:03;;;;;;;4.15;3.75;;;;;;;;;;2046815;28;20038;-87
2023/05/12 04:45:03;;;;;;;4.75;4.28;;;;;;;;;;2055191;28;20054;-88
2023/05/12 04:46:04;;;;;;;9.05;4.13;;;;;;;;;;2046587;29;20101;-87
2023/05/12 04:47:04;;;;;;;;;;;;;;;;;;2039200;29;20035;-87
2023/05/12 04:48:05;;;;;;;11.70;4.20;;;;;;;;;;2047326;29;19998;-87
2023/05/12 04:49:05;;;;;;;4.93;3.83;;;;;;;;;;2046780;29;20062;-87
2023/05/12 04:50:06;;;;;;;7.70;4.40;;;;;;;;;;1704423;28;10001391;-88
2023/05/12 04:51:07;;;;;;;8.07;4.30;;;;;;;;;;2046637;29;20475;-88
2023/05/12 04:52:07;;;;;;;6.57;3.70;;;;;;;;;;2047104;28;20130;-87
2023/05/12 04:53:11;;;;;;;5.80;3.45;;;;;;;;;;2048154;29;20031;-88
2023/05/12 04:54:12;;;;;;;4.70;3.33;;;;;;;;;;2041658;29;20104;-89
2023/05/12 04:55:12;;;;;;;6.63;3.78;;;;;;;;;;2040369;29;20411;-89
2023/05/12 04:56:13;;;;;;;7.55;3.50;;;;;;;;;;2046641;29;20027;-89
2023/05/12 04:57:13;;;;;;;4.50;3.08;;;;;;;;;;2055431;28;20035;-89
2023/05/12 04:58:13;;;;;;;4.63;3.88;;;;;;;;;;2055309;28;20121;-88
2023/05/12 04:59:14;;;;;;;5.32;3.40;;;;;;;;;;2046383;29;20439;-90
2023/05/12 05:00:16;;;;;;;5.82;3.65;;;;;;;;;;2046620;29;20041;-90
2023/05/12 05:01:17;;;;;;;4.00;3.17;;;;;;;;;;2046468;29;20487;-89
2023/05/12 05:02:17;;;;;;;5.68;3.20;;;;;;;;;;2046672;29;20038;-89
2023/05/12 05:03:18;;;;;;;6.45;3.03;;;;;;;;;;2055145;28;20054;-89
2023/05/12 05:04:18;;;;;;;7.82;3.90;;;;;;;;;;2046475;29;20027;-89
2023/05/12 05:05:18;;;;;;;5.18;3.53;;;;;;;;;;2038656;29;20165;-90
2023/05/12 05:06:19;;;;;;;3.63;3.15;;;;;;;;;;2046603;29;20035;-89
2023/05/12 05:07:19;;;;;;;5.22;2.78;;;;;;;;;;2046385;29;20035;-89
2023/05/12 05:08:20;;;;;;;3.25;2.95;;;;;;;;;;2046467;29;20119;-89
2023/05/12 05:09:20;;;;;;;4.70;3.00;;;;;;;;;;2055313;28;20031;-89
2023/05/12 05:10:24;;;;;;;3.65;2.85;;;;;;;;;;1803098;28;10260202;-90
2023/05/12 05:11:43;;;;;;;4.90;2.78;;;;;;;;;;2047508;29;20280;-90
2023/05/12 05:12:44;;;;;;;4.60;3.13;;;;;;;;;;2046510;29;20027;-89
2023/05/12 05:13:44;;;;;;;3.92;3.30;;;;;;;;;;2046520;29;20023;-89
2023/05/12 05:14:45;;;;;;;5.32;3.05;;;;;;;;;;1703161;28;10254253;-89
2023/05/12 05:15:50;;;;;;;6.13;3.17;;;;;;;;;;2055367;28;20042;-88
2023/05/12 05:16:50;;;;;;;5.55;3.05;;;;;;;;;;2046370;29;20031;-88
2023/05/12 05:17:50;;;;;;;7.72;2.83;;;;;;;;;;2038422;29;20019;-88
2023/05/12 05:18:51;;;;;;;9.50;3.35;;;;;;;;;;2046662;29;20023;-87
2023/05/12 05:19:51;;;;;;;3.25;2.50;;;;;;;;;;2055025;28;20023;-87
2023/05/12 05:20:52;;;;;;;3.75;2.40;;;;;;;;;;2046370;29;20104;-87
2023/05/12 05:21:54;;;;;;;2.80;2.40;;;;;;;;;;1752092;28;10320006;-88
2023/05/12 05:22:54;;;;;;;3.17;2.33;;;;;;;;;;2055235;28;20259;-87
2023/05/12 05:23:55;;;;;;;5.55;2.58;;;;;;;;;;2060522;28;20089;-87
2023/05/12 05:24:55;;;;;;;7.63;2.80;;;;;;;;;;2055749;28;20502;-87
2023/05/12 05:25:55;;;;;;;4.50;2.50;;;;;;;;;;2055850;28;20031;-88
2023/05/12 05:26:56;;;;;;;4.38;2.72;;;;;;;;;;2048154;29;20463;-89
2023/05/12 05:27:56;;;;;;;4.65;2.78;;;;;;;;;;2040090;29;20095;-88
2023/05/12 05:28:57;;;;;;;5.88;2.70;;;;;;;;;;2048099;29;20503;-89
2023/05/12 05:29:57;;;;;;;4.55;2.75;;;;;;;;;;2048120;29;20157;-88
2023/05/12 05:30:58;;;;;;;3.70;2.80;;;;;;;;;;2040012;29;20023;-87
2023/05/12 05:31:58;;;;;;;4.50;2.95;;;;;;;;;;2040027;29;20497;-87
2023/05/12 05:32:59;;;;;;;3.10;2.47;;;;;;;;;;2048135;29;20023;-87
2023/05/12 05:33:59;;;;;;;4.22;2.55;;;;;;;;;;2056711;28;20040;-87
2023/05/12 05:34:59;;;;;;;4.68;3.20;;;;;;;;;;2057056;28;20046;-87
2023/05/12 05:36:00;;;;;;;4.70;2.90;;;;;;;;;;2056982;28;20287;-89
2023/05/12 05:37:01;;;;;;;5.13;3.17;;;;;;;;;;2057077;28;20026;-88
2023/05/12 05:38:01;;;;;;;5.40;3.22;;;;;;;;;;2048217;29;20127;-86
2023/05/12 05:39:02;;;;;;;5.20;3.03;;;;;;;;;;2039927;29;20051;-86
2023/05/12 05:40:03;;;;;;;7.50;4.13;;;;;;;;;;2047842;29;20442;-87
2023/05/12 05:41:04;;;;;;;6.85;3.88;;;;;;;;;;2048043;29;20559;-88
2023/05/12 05:42:05;;;;;;;6.50;4.00;;;;;;;;;;2047687;28;20035;-88
2023/05/12 05:43:05;;;;;;;4.82;3.45;;;;;;;;;;2047726;29;20325;-87
2023/05/12 05:44:06;;;;;;;6.68;3.90;;;;;;;;;;2047596;29;20031;-87
2023/05/12 05:45:07;;;;;;;6.47;3.50;;;;;;;;;;2056215;28;20042;-86
2023/05/12 05:46:07;;;;;;;5.00;3.30;;;;;;;;;;2056482;28;20106;-87
2023/05/12 05:47:07;;;;;;;7.05;3.40;;;;;;;;;;2055992;28;20328;-87
2023/05/12 05:48:08;;;;;;;6.50;2.92;;;;;;;;;;2047811;29;20053;-87
2023/05/12 05:49:08;;;;;;;6.68;3.28;;;;;;;;;;2047944;29;20019;-88
2023/05/12 05:50:10;;;;;;;4.07;2.95;;;;;;;;;;2056125;28;20027;-87
2023/05/12 05:51:11;;;;;;;4.28;3.25;;;;;;;;;;2056118;28;20038;-87
2023/05/12 05:52:11;;;;;;;4.93;3.05;;;;;;;;;;2056161;28;20027;-89
2023/05/12 05:53:11;;;;;;;5.65;2.83;;;;;;;;;;2056614;28;20026;-88
2023/05/12 05:54:12;;;;;;;6.22;3.40;;;;;;;;;;2057272;28;20034;-87
2023/05/12 05:55:12;;;;;;;3.90;3.53;;;;;;;;;;2048303;29;20479;-88
2023/05/12 05:56:16;;;;;;;5.13;3.30;;;;;;;;;;2048617;29;20223;-88
2023/05/12 05:57:27;;;;;;;3.40;2.53;;;;;;;;;;2048579;29;20150;-88
2023/05/12 05:58:30;;;;;;;6.13;3.17;;;;;;;;;;2041881;29;20055;-88
2023/05/12 05:59:56;;;;;;;4.28;3.35;;;;;;;;;;2047173;28;20050;-88
2023/05/12 06:00:59;;;;;;;5.38;2.75;;;;;;;;;;2058024;28;20051;-86
2023/05/12 06:01:59;;;;;;;6.22;3.97;;;;;;;;;;2058134;28;20019;-86
2023/05/12 06:03:00;;;;;;;8.32;3.53;;;;;;;;;;2062929;28;20051;-87
2023/05/12 06:04:00;;;;;;;4.30;3.50;;;;;;;;;;2053093;29;20136;-87
2023/05/12 06:05:01;;;;;;;6.70;4.82;;;;;;;;;;2049706;29;20440;-87
2023/05/12 06:06:01;;;;;;;6.55;3.40;;;;;;;;;;2040204;29;20031;-86
2023/05/12 06:07:02;;;;;;;6.15;3.60;;;;;;;;;;2039760;29;20516;-87
2023/05/12 06:08:04;;;;;;;5.90;2.92;;;;;;;;;;2047920;29;20479;-87
2023/05/12 06:09:04;;;;;;;5.38;3.38;;;;;;;;;;2037248;29;20665;-87
2023/05/12 06:10:06;;;;;;;6.68;3.88;;;;;;;;;;2043362;29;20035;-87
2023/05/12 06:11:06;;;;;;;5.50;3.70;;;;;;;;;;2035033;29;20496;-86
2023/05/12 06:12:07;;;;;;;6.55;4.63;;;;;;;;;;2032897;29;20068;-87
2023/05/12 06:13:08;;;;;;;6.05;3.10;;;;;;;;;;2043647;29;20531;-86
2023/05/12 06:14:08;;;;;;;7.97;3.40;;;;;;;;;;2039033;29;20035;-86
2023/05/12 06:15:09;;;;;;;3.83;3.20;;;;;;;;;;2048764;29;20103;-85
2023/05/12 06:16:10;;;;;;;7.75;3.50;;;;;;;;;;2054196;28;20561;-87
2023/05/12 06:17:55;;;;;;;7.75;3.35;;;;;;;;;;2054049;28;20078;-86